Airfield :
LOGIN :

Register | Disclaimer

   EN    FR    IT 

 










Legend :    VFR   Marginal VFR   IFR   Intensive IFR   Very Intensive IFR
Visi :
Ceiling :
>= 8 km
>= 3000ft
5 to 8 km
1000 to 3000 ft
1500m to 5 km
500 to 1000 ft
800 to 1500m
200 to 500 ft
< 800m
< 200 ft
Symbols :   Thunderstorms  Fog  Heavy snow  Heavy precipitations  Wind > 20 kt
SIGMETs :     Misc.  Thunderstorms  Icing  Turbulence  Mountain Waves  Volcanic Ashes







- Airport Elevation : 348 ft
- IATA code : STN
- Download approach charts


EGSS - London Stansted

CURRENT METAR :
  • 240720Z AUTO 22013KT 9999 BKN009 BKN013 14/14 Q1017

EXPIRED METARs :
  • 240650Z AUTO 23009KT 9999 FEW006 14/13 Q1017
  • 240620Z AUTO 22009KT 8000 BKN004 14/13 Q1017
  • 240550Z AUTO 23008KT 5000 BR OVC003 14/14 Q1017
  • 240520Z AUTO 23008KT 2800 BR BKN003 OVC006 14/14 Q1017
  • 240450Z AUTO 22011KT 3400 BR OVC003 14/13 Q1017

TAF AMD TAF EGSS
Valid from the 24 at 07:00 until the 25 at 12:00 UTC


240708Z 2407/2512 22007KT 9999 FEW006
TEMPO 2407/2409 3000 RADZ BR BKN006
TEMPO 2409/2504 BKN012
BECMG 2411/2414 22017KT
TEMPO 2411/2418 23019G29KT
BECMG 2504/2507 BKN012
TEMPO 2505/2508 8000 -RA BKN005
PROB30
TEMPO 2506/2510 3000 RADZ BKN002
BECMG 2509/2512 28010KT FEW025
ATIS : +44 1279 669 325
No reported NOTAMs for that airfield.



MET'MAP, your aeronautical weather chart ! - Copyright ORBIFLY December 2007 - Disclaimer

ORBIFLY MET'MAP TEAM :

Programming & Development : Alexandra Zaïnal
Concept & Development : Baudouin d'Aumeries
Co-Development & Prog : Marc-Olivier Méhu
Technical & hardware support : Manuel Goepfert

Contact : metmap@orbifly.com




SOURCES & CREDITS :

   NOAA